createdAt,value
2019-05-06T00:01:53.755Z,20.00
2019-05-06T00:04:27.651Z,20.00
2019-05-06T00:07:04.144Z,20.00
2019-05-06T00:09:37.319Z,20.10
2019-05-06T00:12:14.343Z,20.10
2019-05-06T00:14:48.113Z,20.00
2019-05-06T00:17:23.964Z,20.10
2019-05-06T00:19:58.067Z,20.10
2019-05-06T00:22:34.334Z,20.10
2019-05-06T00:25:09.996Z,20.10
2019-05-06T00:28:04.200Z,20.20
2019-05-06T00:30:37.489Z,20.20
2019-05-06T00:33:13.572Z,20.20
2019-05-06T00:35:47.755Z,20.20
2019-05-06T00:38:24.483Z,20.20
2019-05-06T00:40:59.233Z,20.20
2019-05-06T00:43:34.528Z,20.30
2019-05-06T00:46:08.906Z,20.30
2019-05-06T00:48:44.910Z,20.30
2019-05-06T00:51:19.487Z,20.30
2019-05-06T00:54:14.325Z,20.30
2019-05-06T00:56:48.976Z,20.30
2019-05-06T00:59:23.843Z,20.40
2019-05-06T01:01:58.545Z,20.40
2019-05-06T01:04:33.859Z,20.40
2019-05-06T01:07:08.537Z,20.50
2019-05-06T01:09:43.916Z,20.50
2019-05-06T01:12:18.737Z,20.50
2019-05-06T01:14:54.658Z,20.50
2019-05-06T01:17:30.709Z,20.60
2019-05-06T01:20:07.661Z,20.60
2019-05-06T01:22:43.645Z,20.50
2019-05-06T01:25:18.057Z,20.50
2019-05-06T01:27:54.049Z,20.50
2019-05-06T01:30:28.878Z,20.50
2019-05-06T01:33:03.941Z,20.50
2019-05-06T01:35:39.860Z,20.50
2019-05-06T01:38:33.795Z,20.40
2019-05-06T01:41:10.661Z,20.40
2019-05-06T01:43:46.186Z,20.40
2019-05-06T01:46:21.063Z,20.40
2019-05-06T01:48:58.622Z,20.50
2019-05-06T01:51:31.720Z,20.40
2019-05-06T01:54:06.217Z,20.50
2019-05-06T01:56:40.901Z,20.30
2019-05-06T01:59:15.468Z,20.30
2019-05-06T02:01:59.926Z,20.30
2019-05-06T02:04:25.902Z,20.20
2019-05-06T02:07:00.428Z,20.10
2019-05-06T02:09:34.878Z,20.10
2019-05-06T02:12:09.407Z,20.10
2019-05-06T02:14:46.201Z,20.10
2019-05-06T02:17:21.237Z,20.00
2019-05-06T02:19:55.664Z,20.10
2019-05-06T02:22:34.590Z,20.10
2019-05-06T02:28:14.193Z,20.00
2019-05-06T02:31:09.527Z,20.10
2019-05-06T02:33:55.518Z,20.10
2019-05-06T02:36:50.385Z,20.10
2019-05-06T02:39:34.888Z,20.20
2019-05-06T02:42:43.119Z,20.10
2019-05-06T02:44:55.693Z,20.10
2019-05-06T02:47:46.600Z,20.10
2019-05-06T02:50:16.603Z,20.10
2019-05-06T02:52:53.874Z,20.00
2019-05-06T02:55:36.084Z,20.00
2019-05-06T03:01:14.477Z,20.00
2019-05-06T03:04:09.221Z,19.90
2019-05-06T03:06:44.632Z,19.90
2019-05-06T03:09:19.167Z,19.90
2019-05-06T03:11:54.088Z,19.90
2019-05-06T03:14:30.283Z,19.90
2019-05-06T03:17:05.230Z,20.00
2019-05-06T03:19:45.730Z,20.00
2019-05-06T03:22:24.085Z,20.00
2019-05-06T03:24:57.558Z,19.90
2019-05-06T03:27:32.872Z,20.00
2019-05-06T03:30:09.473Z,20.00
2019-05-06T03:33:20.359Z,20.00
2019-05-06T03:35:33.277Z,20.10
2019-05-06T03:37:54.626Z,20.10
2019-05-06T03:40:36.136Z,20.10
2019-05-06T03:43:06.830Z,20.10
2019-05-06T03:45:46.404Z,20.10
2019-05-06T03:48:35.573Z,20.00
2019-05-06T03:51:09.915Z,20.00
2019-05-06T03:53:45.239Z,20.00
2019-05-06T03:56:20.290Z,20.00
2019-05-06T03:58:56.723Z,20.00
2019-05-06T04:01:33.372Z,20.00
2019-05-06T04:04:07.300Z,19.90
2019-05-06T04:06:43.668Z,19.90
2019-05-06T04:09:17.292Z,19.90
2019-05-06T04:11:54.156Z,19.90
2019-05-06T04:14:28.442Z,19.90
2019-05-06T04:17:13.142Z,19.90
2019-05-06T04:19:53.419Z,19.90
2019-05-06T04:22:27.446Z,19.90
2019-05-06T04:25:06.868Z,19.90
2019-05-06T04:27:54.313Z,20.00
2019-05-06T04:30:28.815Z,19.90
2019-05-06T04:33:05.552Z,19.90
2019-05-06T04:35:43.055Z,20.00
2019-05-06T04:38:17.989Z,19.90
2019-05-06T04:40:53.852Z,19.90
2019-05-06T04:43:28.196Z,19.80
2019-05-06T04:46:03.114Z,19.90
2019-05-06T04:48:39.922Z,19.80
2019-05-06T04:51:15.587Z,19.80
2019-05-06T04:53:54.154Z,19.80
2019-05-06T04:56:28.590Z,19.80
2019-05-06T04:59:06.196Z,19.80
2019-05-06T05:01:40.038Z,19.80
2019-05-06T05:04:27.741Z,19.90
2019-05-06T05:06:55.439Z,19.80
2019-05-06T05:09:29.460Z,19.80
2019-05-06T05:12:06.385Z,19.80
2019-05-06T05:14:42.313Z,19.70
2019-05-06T05:17:27.071Z,19.70
2019-05-06T05:20:03.713Z,19.70
2019-05-06T05:22:38.481Z,19.70
2019-05-06T05:25:52.895Z,19.70
2019-05-06T05:28:13.109Z,19.70
2019-05-06T05:30:48.415Z,19.70
2019-05-06T05:33:22.896Z,19.70
2019-05-06T05:35:58.259Z,19.80
2019-05-06T05:38:33.068Z,19.80
2019-05-06T05:41:07.869Z,19.80
2019-05-06T05:43:46.951Z,19.80
2019-05-06T05:46:23.125Z,19.80
2019-05-06T05:49:12.024Z,19.80
2019-05-06T05:51:48.296Z,19.80
2019-05-06T05:54:23.115Z,19.80
2019-05-06T05:56:57.598Z,19.80
2019-05-06T05:59:34.768Z,19.80
2019-05-06T06:02:09.399Z,19.80
2019-05-06T06:04:53.738Z,19.80
2019-05-06T06:07:23.233Z,19.80
2019-05-06T06:10:02.671Z,19.80
2019-05-06T06:12:36.477Z,19.90
2019-05-06T06:15:10.265Z,19.80
2019-05-06T06:17:51.977Z,19.80
2019-05-06T06:20:43.453Z,19.90
2019-05-06T06:23:22.962Z,19.90
2019-05-06T06:25:56.099Z,20.00
2019-05-06T06:28:33.171Z,20.00
2019-05-06T06:31:13.245Z,20.00
2019-05-06T06:33:46.710Z,20.10
2019-05-06T06:36:38.086Z,20.10
2019-05-06T06:39:13.654Z,20.10
2019-05-06T06:41:48.744Z,20.10
2019-05-06T06:44:28.877Z,20.10
2019-05-06T06:47:03.355Z,20.20
2019-05-06T06:49:43.014Z,20.10
2019-05-06T06:52:18.616Z,20.10
2019-05-06T06:54:53.225Z,20.00
2019-05-06T06:57:34.648Z,20.10
2019-05-06T07:00:12.876Z,20.00
2019-05-06T07:02:48.625Z,20.10
2019-05-06T07:05:33.066Z,20.10
2019-05-06T07:08:06.364Z,20.10
2019-05-06T07:10:45.980Z,20.10
2019-05-06T07:13:23.182Z,20.10
2019-05-06T07:19:24.607Z,20.20
2019-05-06T07:22:22.754Z,20.20
2019-05-06T07:25:05.295Z,20.30
2019-05-06T07:28:13.515Z,20.20
2019-05-06T07:31:18.612Z,20.30
2019-05-06T07:33:42.919Z,20.30
2019-05-06T07:36:16.933Z,20.20
2019-05-06T07:39:04.335Z,20.20
2019-05-06T07:41:47.032Z,20.20
2019-05-06T07:44:38.326Z,20.20
2019-05-06T07:47:29.679Z,20.20
2019-05-06T07:50:07.289Z,20.20
2019-05-06T07:52:42.154Z,20.20
2019-05-06T07:55:18.360Z,20.20
2019-05-06T07:57:52.532Z,20.20
2019-05-06T08:00:27.220Z,20.20
2019-05-06T08:03:03.501Z,20.20
2019-05-06T08:05:51.581Z,20.20
2019-05-06T08:08:13.467Z,20.20
2019-05-06T08:10:47.776Z,20.10
2019-05-06T08:13:22.587Z,20.20
2019-05-06T08:15:56.912Z,20.20
2019-05-06T08:18:32.959Z,20.10
2019-05-06T08:21:08.038Z,20.20
2019-05-06T08:23:57.831Z,20.10
2019-05-06T08:26:32.298Z,20.10
2019-05-06T08:29:06.725Z,20.10
2019-05-06T08:31:42.939Z,20.10
2019-05-06T08:34:17.032Z,20.10
2019-05-06T08:36:53.317Z,20.10
2019-05-06T08:39:27.674Z,20.00
2019-05-06T08:42:02.671Z,20.10
2019-05-06T08:44:37.012Z,20.10
2019-05-06T08:47:13.147Z,20.00
2019-05-06T08:50:03.692Z,20.10
2019-05-06T08:52:57.123Z,20.00
2019-05-06T08:55:41.951Z,20.00
2019-05-06T08:58:16.328Z,20.00
2019-05-06T09:00:53.732Z,20.00
2019-05-06T09:03:28.262Z,20.00
2019-05-06T09:06:03.193Z,20.00
2019-05-06T09:08:37.360Z,20.00
2019-05-06T09:11:12.204Z,20.00
2019-05-06T09:13:48.009Z,20.00
2019-05-06T09:16:22.448Z,19.90
2019-05-06T09:18:57.024Z,19.90
2019-05-06T09:21:33.309Z,19.90
2019-05-06T09:30:26.807Z,19.90
2019-05-06T09:33:02.642Z,19.90
2019-05-06T09:35:36.536Z,19.80
2019-05-06T09:38:12.412Z,19.80
2019-05-06T09:40:46.616Z,19.80
2019-05-06T09:43:22.242Z,19.80
2019-05-06T09:45:57.061Z,19.80
2019-05-06T09:48:33.005Z,19.80
2019-05-06T09:51:07.074Z,19.80
2019-05-06T09:54:00.582Z,19.80
2019-05-06T09:56:38.379Z,19.80
2019-05-06T09:59:12.907Z,19.80
2019-05-06T10:01:47.129Z,19.70
2019-05-06T10:04:21.213Z,19.70
2019-05-06T10:06:59.973Z,19.70
2019-05-06T10:09:32.880Z,19.70
2019-05-06T10:12:06.781Z,19.70
2019-05-06T10:14:38.913Z,19.60
2019-05-06T10:17:15.843Z,19.60
2019-05-06T10:19:50.012Z,19.60
2019-05-06T10:22:24.612Z,19.60
2019-05-06T10:24:58.878Z,19.50
2019-05-06T10:27:34.756Z,19.60
2019-05-06T10:30:12.524Z,19.50
2019-05-06T10:32:47.955Z,19.50
2019-05-06T10:35:24.267Z,19.40
2019-05-06T10:38:25.391Z,19.40
2019-05-06T10:41:07.599Z,19.30
2019-05-06T10:44:05.410Z,19.30
2019-05-06T10:46:43.075Z,19.30
2019-05-06T10:49:17.537Z,19.30
2019-05-06T10:52:08.672Z,19.30
2019-05-06T10:54:43.810Z,19.30
2019-05-06T10:57:43.057Z,19.30
2019-05-06T11:00:17.661Z,19.30
2019-05-06T11:02:58.803Z,19.20
2019-05-06T11:05:37.280Z,19.20
2019-05-06T11:08:12.060Z,19.20
2019-05-06T11:10:53.184Z,19.20
2019-05-06T11:13:26.603Z,19.20
2019-05-06T11:16:03.166Z,19.20
2019-05-06T11:18:36.558Z,19.20
2019-05-06T11:21:12.610Z,19.20
2019-05-06T11:23:45.845Z,19.10
2019-05-06T11:26:23.675Z,19.10
2019-05-06T11:29:05.238Z,19.10
2019-05-06T11:31:43.064Z,19.20
2019-05-06T11:34:24.651Z,19.10
2019-05-06T11:37:16.251Z,19.10
2019-05-06T11:39:52.833Z,19.10
2019-05-06T11:42:32.175Z,19.00
2019-05-06T11:45:04.070Z,19.00
2019-05-06T11:47:38.921Z,19.00
2019-05-06T11:50:17.221Z,19.00
2019-05-06T11:52:55.844Z,19.00
2019-05-06T11:55:32.726Z,19.00
2019-05-06T11:58:07.988Z,19.00
2019-05-06T12:00:49.606Z,18.90
2019-05-06T12:03:24.004Z,18.90
2019-05-06T12:05:59.023Z,19.00
2019-05-06T12:08:36.451Z,18.90
2019-05-06T12:11:13.488Z,18.90
2019-05-06T12:13:53.023Z,18.80
2019-05-06T12:16:26.538Z,18.90
2019-05-06T12:19:02.908Z,18.90
2019-05-06T12:21:37.142Z,18.90
2019-05-06T12:24:32.985Z,18.90
2019-05-06T12:27:05.758Z,18.90
2019-05-06T12:29:47.397Z,18.90
2019-05-06T12:32:25.641Z,18.90
2019-05-06T12:35:03.475Z,18.80
2019-05-06T12:37:45.138Z,18.80
2019-05-06T12:40:24.049Z,18.80
2019-05-06T12:43:15.573Z,18.80
2019-05-06T12:45:53.177Z,18.70
2019-05-06T12:48:30.442Z,18.80
2019-05-06T12:51:05.433Z,18.70
2019-05-06T12:53:42.753Z,18.70
2019-05-06T12:56:24.723Z,18.70
2019-05-06T12:59:02.830Z,18.70
2019-05-06T13:01:45.211Z,18.70
2019-05-06T13:04:43.275Z,18.70
2019-05-06T13:06:57.294Z,18.80
2019-05-06T13:09:37.511Z,18.70
2019-05-06T13:12:37.962Z,18.70
2019-05-06T13:15:18.698Z,18.70
2019-05-06T13:20:52.124Z,18.70
2019-05-06T13:23:33.927Z,18.70
2019-05-06T13:26:06.166Z,18.70
2019-05-06T13:28:46.447Z,18.70
2019-05-06T13:31:25.501Z,18.70
2019-05-06T13:34:07.118Z,18.70
2019-05-06T13:36:45.130Z,18.70
2019-05-06T13:39:23.607Z,18.70
2019-05-06T13:41:57.602Z,18.70
2019-05-06T13:44:37.724Z,18.60
2019-05-06T13:47:24.303Z,18.60
2019-05-06T13:50:02.760Z,18.70
2019-05-06T13:52:37.726Z,18.70
2019-05-06T13:55:17.372Z,18.70
2019-05-06T13:57:52.452Z,18.70
2019-05-06T14:00:27.246Z,18.70
2019-05-06T14:03:04.702Z,18.70
2019-05-06T14:05:43.535Z,18.70
2019-05-06T14:08:22.802Z,18.70
2019-05-06T14:11:06.110Z,18.60
2019-05-06T14:13:42.048Z,18.60
2019-05-06T14:16:33.151Z,18.60
2019-05-06T14:19:13.171Z,18.70
2019-05-06T14:21:47.375Z,18.60
2019-05-06T14:24:26.040Z,18.60
2019-05-06T14:27:11.740Z,18.50
2019-05-06T14:29:48.156Z,18.60
2019-05-06T14:32:34.859Z,18.70
2019-05-06T14:35:03.925Z,18.60
2019-05-06T14:37:38.765Z,18.60
2019-05-06T14:40:18.549Z,18.60
2019-05-06T14:42:53.236Z,18.60
2019-05-06T14:45:29.891Z,18.60
2019-05-06T14:48:06.954Z,18.60
2019-05-06T14:53:54.510Z,18.50
2019-05-06T14:56:45.359Z,18.50
2019-05-06T15:05:23.853Z,18.50
2019-05-06T15:11:39.059Z,18.60
2019-05-06T15:14:22.503Z,18.60
2019-05-06T15:19:52.606Z,18.50
2019-05-06T15:25:55.404Z,18.50
2019-05-06T15:28:42.528Z,18.60
2019-05-06T15:35:02.418Z,18.50
2019-05-06T15:37:43.592Z,18.50
2019-05-06T15:40:31.098Z,18.50
2019-05-06T15:42:57.819Z,18.40
2019-05-06T15:45:33.911Z,18.40
2019-05-06T15:48:08.434Z,18.40
2019-05-06T15:50:45.972Z,18.50
2019-05-06T15:53:18.851Z,18.40
2019-05-06T15:55:55.152Z,18.40
2019-05-06T15:58:32.260Z,18.40
2019-05-06T16:01:09.190Z,18.40
2019-05-06T16:03:45.207Z,18.40
2019-05-06T16:06:19.725Z,18.40
2019-05-06T16:08:55.411Z,18.40
2019-05-06T16:11:33.265Z,18.40
2019-05-06T16:14:08.134Z,18.40
2019-05-06T16:16:43.142Z,18.40
2019-05-06T16:19:16.910Z,18.40
2019-05-06T16:21:52.119Z,18.40
2019-05-06T16:24:35.945Z,18.40
2019-05-06T16:27:12.276Z,18.40
2019-05-06T16:29:48.736Z,18.40
2019-05-06T16:32:23.420Z,18.40
2019-05-06T16:34:59.431Z,18.40
2019-05-06T16:37:35.591Z,18.40
2019-05-06T16:40:12.218Z,18.40
2019-05-06T16:42:46.217Z,18.30
2019-05-06T16:45:23.237Z,18.30
2019-05-06T16:47:58.087Z,18.30
2019-05-06T16:50:32.997Z,18.30
2019-05-06T16:53:12.101Z,18.30
2019-05-06T16:55:55.726Z,18.30
2019-05-06T16:58:32.795Z,18.40
2019-05-06T17:01:14.975Z,18.40
2019-05-06T17:03:57.797Z,18.40
2019-05-06T17:06:33.620Z,18.40
2019-05-06T17:09:20.095Z,18.30
2019-05-06T17:11:47.183Z,18.30
2019-05-06T17:14:21.401Z,18.20
2019-05-06T17:16:55.792Z,18.30
2019-05-06T17:19:32.210Z,18.20
2019-05-06T17:22:06.340Z,18.20
2019-05-06T17:24:42.223Z,18.30
2019-05-06T17:27:16.381Z,18.40
2019-05-06T17:29:57.766Z,18.30
2019-05-06T17:32:35.800Z,18.30
2019-05-06T17:35:12.638Z,18.20
2019-05-06T17:37:52.665Z,18.20
2019-05-06T17:40:27.341Z,18.20
2019-05-06T17:43:02.583Z,18.20
2019-05-06T17:45:58.003Z,18.20
2019-05-06T17:48:23.263Z,18.20
2019-05-06T17:51:13.944Z,18.20
2019-05-06T17:53:55.714Z,18.30
2019-05-06T17:56:30.093Z,18.20
2019-05-06T17:59:04.393Z,18.30
2019-05-06T18:01:39.312Z,18.20
2019-05-06T18:04:13.704Z,18.20
2019-05-06T18:06:48.004Z,18.20
2019-05-06T18:09:22.385Z,18.20
2019-05-06T18:11:59.227Z,18.20
2019-05-06T18:14:33.280Z,18.20
2019-05-06T18:17:07.748Z,18.10
2019-05-06T18:19:41.924Z,18.10
2019-05-06T18:22:16.038Z,18.10
2019-05-06T18:24:48.165Z,18.10
2019-05-06T18:27:22.666Z,18.10
2019-05-06T18:30:11.428Z,18.10
2019-05-06T18:32:33.990Z,18.10
2019-05-06T18:35:12.958Z,18.10
2019-05-06T18:37:47.303Z,18.10
2019-05-06T18:40:23.087Z,18.10
2019-05-06T18:42:58.396Z,18.10
2019-05-06T18:45:33.445Z,18.10
2019-05-06T18:48:08.400Z,18.10
2019-05-06T18:50:42.669Z,18.20
2019-05-06T18:53:16.572Z,18.20
2019-05-06T18:55:50.564Z,18.20
2019-05-06T18:58:24.826Z,18.20
2019-05-06T19:00:59.166Z,18.10
2019-05-06T19:03:34.629Z,18.20
2019-05-06T19:06:08.697Z,18.20
2019-05-06T19:08:52.733Z,18.10
2019-05-06T19:11:26.067Z,18.20
2019-05-06T19:14:02.072Z,18.20
2019-05-06T19:16:48.563Z,18.10
2019-05-06T19:19:12.454Z,18.20
2019-05-06T19:21:48.729Z,18.20
2019-05-06T19:24:23.183Z,18.20
2019-05-06T19:26:57.292Z,18.20
2019-05-06T19:29:32.715Z,18.10
2019-05-06T19:32:06.723Z,18.10
2019-05-06T19:34:42.331Z,18.10
2019-05-06T19:37:16.216Z,18.10
2019-05-06T19:39:52.341Z,18.10
2019-05-06T19:42:25.480Z,18.00
2019-05-06T19:44:59.410Z,18.10
2019-05-06T19:47:34.199Z,18.10
2019-05-06T19:50:08.870Z,18.20
2019-05-06T19:52:43.124Z,18.10
2019-05-06T19:55:17.131Z,18.10
2019-05-06T19:57:52.619Z,18.20
2019-05-06T20:00:29.015Z,18.10
2019-05-06T20:03:03.182Z,18.20
2019-05-06T20:05:38.280Z,18.20
2019-05-06T20:08:19.057Z,18.20
2019-05-06T20:11:10.088Z,18.10
2019-05-06T20:13:44.937Z,18.10
2019-05-06T20:16:20.166Z,18.10
2019-05-06T20:18:54.235Z,18.10
2019-05-06T20:21:28.597Z,18.20
2019-05-06T20:24:03.077Z,18.10
2019-05-06T20:26:36.805Z,18.10
2019-05-06T20:29:12.791Z,18.20
2019-05-06T20:31:47.244Z,18.20
2019-05-06T20:34:22.437Z,18.10
2019-05-06T20:36:56.446Z,18.20
2019-05-06T20:39:29.553Z,18.20
2019-05-06T20:42:04.142Z,18.10
2019-05-06T20:44:38.404Z,18.10
2019-05-06T20:47:13.608Z,18.10
2019-05-06T20:49:47.902Z,18.10
2019-05-06T20:52:23.003Z,18.10
2019-05-06T20:54:58.944Z,18.10
2019-05-06T20:57:34.442Z,18.20
2019-05-06T21:00:13.647Z,18.20
2019-05-06T21:02:47.949Z,18.20
2019-05-06T21:05:22.899Z,18.20
2019-05-06T21:07:57.019Z,18.10
2019-05-06T21:10:32.944Z,18.10
2019-05-06T21:13:06.341Z,18.10
2019-05-06T21:15:40.497Z,18.10
2019-05-06T21:18:14.404Z,18.10
2019-05-06T21:20:46.812Z,18.10
2019-05-06T21:23:22.543Z,18.10
2019-05-06T21:25:56.424Z,18.10
2019-05-06T21:28:30.394Z,18.10
2019-05-06T21:31:04.269Z,18.20
2019-05-06T21:33:37.613Z,18.10
2019-05-06T21:36:12.378Z,18.10
2019-05-06T21:38:46.339Z,18.10
2019-05-06T21:41:19.244Z,18.00
2019-05-06T21:43:54.777Z,18.00
2019-05-06T21:46:31.815Z,18.00
2019-05-06T21:49:04.886Z,18.00
2019-05-06T21:51:38.867Z,18.10
2019-05-06T21:54:13.132Z,18.00
2019-05-06T21:56:47.645Z,18.00
2019-05-06T21:59:21.995Z,18.00
2019-05-06T22:01:56.479Z,18.00
2019-05-06T22:04:32.678Z,18.10
2019-05-06T22:07:06.624Z,18.00
2019-05-06T22:09:39.548Z,18.00
2019-05-06T22:12:13.898Z,18.10
2019-05-06T22:14:48.769Z,18.00
2019-05-06T22:17:27.816Z,18.00
2019-05-06T22:20:03.277Z,18.10
2019-05-06T22:22:42.594Z,18.10
2019-05-06T22:25:17.741Z,18.10
2019-05-06T22:27:52.082Z,18.00
2019-05-06T22:30:26.491Z,18.00
2019-05-06T22:33:03.477Z,18.00
2019-05-06T22:35:38.185Z,18.00
2019-05-06T22:38:12.514Z,18.00
2019-05-06T22:40:46.295Z,18.00
2019-05-06T22:43:19.025Z,18.10
2019-05-06T22:45:53.293Z,18.10
2019-05-06T22:48:27.353Z,18.20
2019-05-06T22:51:02.702Z,18.20
2019-05-06T22:53:37.146Z,18.10
2019-05-06T22:56:14.165Z,18.10
2019-05-06T22:58:48.608Z,18.10
2019-05-06T23:01:23.974Z,18.10
2019-05-06T23:03:57.982Z,18.20
2019-05-06T23:06:33.085Z,18.20
2019-05-06T23:09:08.513Z,18.20
2019-05-06T23:11:43.014Z,18.10
2019-05-06T23:14:28.822Z,18.20
2019-05-06T23:16:53.076Z,18.30
2019-05-06T23:19:27.236Z,18.30
2019-05-06T23:22:04.005Z,18.30
2019-05-06T23:24:36.484Z,18.30
2019-05-06T23:27:12.505Z,18.30
2019-05-06T23:29:45.702Z,18.30
2019-05-06T23:32:20.404Z,18.30
2019-05-06T23:34:55.938Z,18.30
2019-05-06T23:37:28.210Z,18.40
2019-05-06T23:40:38.618Z,18.30
2019-05-06T23:43:49.488Z,18.30
2019-05-06T23:46:57.905Z,18.40
2019-05-06T23:50:06.226Z,18.40
2019-05-06T23:53:14.334Z,18.40
2019-05-06T23:56:22.860Z,18.50
2019-05-06T23:58:56.838Z,18.50
